Airfield :
LOGIN :

Register | Disclaimer

   EN    FR    IT 

 










Legend :    VFR   Marginal VFR   IFR   Intensive IFR   Very Intensive IFR
Visi :
Ceiling :
>= 8 km
>= 3000ft
5 to 8 km
1000 to 3000 ft
1500m to 5 km
500 to 1000 ft
800 to 1500m
200 to 500 ft
< 800m
< 200 ft
Symbols :   Thunderstorms  Fog  Heavy snow  Heavy precipitations  Wind > 20 kt
SIGMETs :     Misc.  Thunderstorms  Icing  Turbulence  Mountain Waves  Volcanic Ashes






- Airport Elevation : 142 ft
- IATA code : ALC


LEAL - Alicante

CURRENT METAR :
  • 231000Z 08009KT 050V110 9999 FEW010 SCT014 21/15 Q1018 NOSIG

EXPIRED METARs :
  • 230930Z 08008KT 040V110 9999 FEW010 SCT014 20/15 Q1017 NOSIG
  • 230900Z 09007KT 060V140 9999 FEW010 SCT014 20/16 Q1017 NOSIG
  • 230830Z 08008KT 050V120 9999 FEW009 SCT013 20/14 Q1017 NOSIG
  • 230800Z 08005KT 020V110 9999 FEW009 21/14 Q1017 NOSIG
  • 230730Z 05004KT 350V090 9999 SCT009 20/14 Q1017 NOSIG
  • 230700Z 03005KT 010V070 9999 SCT009 19/12 Q1017 NOSIG
  • 230630Z VRB02KT 9999 SCT009 19/14 Q1017 NOSIG
  • 230600Z VRB02KT 9999 FEW008 17/13 Q1016 NOSIG
  • 230530Z VRB01KT CAVOK 15/10 Q1016 NOSIG

TAF TAF LEAL
Valid from the 23 at 06:00 until the 24 at 06:00 UTC


230500Z 2306/2406 31005KT 9999 FEW025 TX25/2315Z TN15/2306Z
BECMG 2306/2308 08010KT
PROB40
TEMPO 2314/2318 08015G25KT
BECMG 2317/2319 VRB03KT



MET'MAP, your aeronautical weather chart ! - Copyright ORBIFLY December 2007 - Disclaimer

ORBIFLY MET'MAP TEAM :

Programming & Development : Alexandra Zaïnal
Original concept : Baudouin d'Aumeries
Technical & hardware support : Manuel Goepfert
Assistance : Marc-Olivier Méhu




SOURCES & CREDITS :

   NOAA